TimeCST,TemperatureF,Dew PointF,Humidity,Sea Level PressureIn,VisibilityMPH,Wind Direction,Wind SpeedMPH,Gust SpeedMPH,PrecipitationIn,Events,Conditions,WindDirDegrees,DateUTC
12:35 AM,64.4,64.4,100,30.06,4.0,Calm,Calm,-,N/A,,Overcast,0,2013-12-09 06:35:00
12:46 AM,66.2,64.4,94,30.05,4.0,South,4.6,-,N/A,,Overcast,190,2013-12-09 06:46:00
12:53 AM,66.9,66.0,97,30.06,6.0,South,3.5,-,N/A,,Overcast,190,2013-12-09 06:53:00
1:17 AM,69.8,68.0,94,30.05,8.0,South,6.9,-,N/A,,Overcast,180,2013-12-09 07:17:00
1:53 AM,70.0,68.0,93,30.05,8.0,South,5.8,-,N/A,,Overcast,180,2013-12-09 07:53:00
2:53 AM,70.0,68.0,93,30.05,9.0,SSW,4.6,-,N/A,,Mostly Cloudy,200,2013-12-09 08:53:00
3:01 AM,69.8,68.0,94,30.04,9.0,SSW,4.6,-,N/A,,Mostly Cloudy,200,2013-12-09 09:01:00
3:26 AM,68.0,66.2,94,30.05,2.5,SW,5.8,-,N/A,,Mostly Cloudy,220,2013-12-09 09:26:00
3:33 AM,68.0,66.2,94,30.05,2.0,WSW,3.5,-,N/A,,Mostly Cloudy,240,2013-12-09 09:33:00
3:43 AM,66.2,66.2,100,30.05,1.5,West,3.5,-,N/A,,Overcast,260,2013-12-09 09:43:00
3:53 AM,66.9,66.0,97,30.06,1.0,Variable,4.6,-,N/A,,Overcast,0,2013-12-09 09:53:00
4:09 AM,64.4,64.4,100,30.05,0.8,North,4.6,-,N/A,,Mist,360,2013-12-09 10:09:00
4:53 AM,60.1,60.1,100,30.07,1.0,North,3.5,-,N/A,,Mist,350,2013-12-09 10:53:00
5:10 AM,60.8,60.8,100,30.06,0.8,Calm,Calm,-,N/A,,Mist,0,2013-12-09 11:10:00
5:27 AM,60.8,59.0,94,30.07,1.2,Calm,Calm,-,0.00,Rain,Light Rain,0,2013-12-09 11:27:00
5:41 AM,60.8,60.8,100,30.07,2.0,North,3.5,-,0.00,Rain,Light Rain,10,2013-12-09 11:41:00
5:53 AM,61.0,60.1,97,30.08,2.5,North,3.5,-,0.00,Rain,Light Rain,360,2013-12-09 11:53:00
6:00 AM,60.8,59.0,94,30.08,3.0,North,5.8,-,0.02,Rain,Light Rain,350,2013-12-09 12:00:00
6:53 AM,57.0,55.9,96,30.11,10.0,North,6.9,-,0.02,,Overcast,350,2013-12-09 12:53:00
7:01 AM,57.2,55.4,94,30.11,10.0,NNW,5.8,-,N/A,,Overcast,340,2013-12-09 13:01:00
7:38 AM,55.4,55.4,100,30.11,10.0,North,5.8,-,0.00,,Overcast,360,2013-12-09 13:38:00
7:53 AM,55.9,55.0,97,30.12,10.0,North,5.8,-,0.00,,Overcast,360,2013-12-09 13:53:00
8:53 AM,57.9,57.0,97,30.13,10.0,North,5.8,-,N/A,,Overcast,10,2013-12-09 14:53:00
9:07 AM,59.0,57.2,94,30.13,10.0,North,6.9,-,N/A,,Overcast,10,2013-12-09 15:07:00
9:33 AM,59.0,57.2,94,30.13,10.0,North,8.1,-,N/A,,Overcast,360,2013-12-09 15:33:00
9:53 AM,59.0,57.0,93,30.14,10.0,North,9.2,-,N/A,,Overcast,350,2013-12-09 15:53:00
10:53 AM,62.1,57.0,84,30.13,10.0,NNE,11.5,-,N/A,,Overcast,20,2013-12-09 16:53:00
11:33 AM,64.4,57.2,77,30.11,10.0,NNE,8.1,-,N/A,,Scattered Clouds,20,2013-12-09 17:33:00
11:53 AM,66.0,57.9,75,30.11,10.0,NNE,6.9,-,N/A,,Clear,20,2013-12-09 17:53:00
12:53 PM,68.0,57.9,70,30.08,10.0,NNW,8.1,-,N/A,,Clear,340,2013-12-09 18:53:00
1:53 PM,70.0,59.0,68,30.06,10.0,North,4.6,-,N/A,,Clear,360,2013-12-09 19:53:00
2:53 PM,72.0,60.1,66,30.05,10.0,Calm,Calm,-,N/A,,Clear,0,2013-12-09 20:53:00
3:53 PM,70.0,60.1,71,30.05,10.0,NNW,4.6,-,N/A,,Clear,340,2013-12-09 21:53:00
4:53 PM,66.0,59.0,78,30.06,10.0,North,4.6,-,N/A,,Scattered Clouds,350,2013-12-09 22:53:00
5:14 PM,64.4,59.0,83,30.06,10.0,North,6.9,-,N/A,,Overcast,350,2013-12-09 23:14:00
5:53 PM,63.0,57.9,84,30.08,10.0,North,6.9,-,N/A,,Overcast,10,2013-12-09 23:53:00
6:53 PM,61.0,55.9,83,30.08,10.0,North,5.8,-,N/A,,Overcast,360,2013-12-10 00:53:00
7:39 PM,60.8,55.4,82,30.08,10.0,NNE,4.6,-,N/A,,Overcast,30,2013-12-10 01:39:00
7:53 PM,60.1,55.9,86,30.09,10.0,North,4.6,-,N/A,,Mostly Cloudy,350,2013-12-10 01:53:00
8:01 PM,60.8,55.4,82,30.08,10.0,North,4.6,-,N/A,,Mostly Cloudy,350,2013-12-10 02:01:00
8:22 PM,60.8,55.4,82,30.08,10.0,Calm,Calm,-,N/A,,Overcast,0,2013-12-10 02:22:00
8:45 PM,60.8,55.4,82,30.07,10.0,NE,3.5,-,N/A,,Overcast,40,2013-12-10 02:45:00
8:53 PM,60.1,55.9,86,30.08,10.0,NE,3.5,-,N/A,,Overcast,50,2013-12-10 02:53:00
8:59 PM,60.8,55.4,82,30.07,10.0,Calm,Calm,-,N/A,,Overcast,0,2013-12-10 02:59:00
9:11 PM,60.8,55.4,82,30.07,10.0,Calm,Calm,-,N/A,,Overcast,0,2013-12-10 03:11:00
9:53 PM,60.1,55.9,86,30.07,10.0,Calm,Calm,-,N/A,,Overcast,0,2013-12-10 03:53:00
10:05 PM,60.8,55.4,82,30.06,10.0,Calm,Calm,-,N/A,,Overcast,0,2013-12-10 04:05:00
10:53 PM,60.1,55.9,86,30.07,10.0,Calm,Calm,-,N/A,,Overcast,0,2013-12-10 04:53:00
11:11 PM,60.8,55.4,82,30.06,10.0,Calm,Calm,-,N/A,,Overcast,0,2013-12-10 05:11:00
11:53 PM,60.1,57.0,90,30.04,10.0,Calm,Calm,-,N/A,,Overcast,0,2013-12-10 05:53:00